createdAt,value
2018-01-13T00:00:04.405Z,27.73
2018-01-13T00:02:30.847Z,27.10
2018-01-13T00:04:57.187Z,29.12
2018-01-13T00:07:24.298Z,26.65
2018-01-13T00:09:50.647Z,27.15
2018-01-13T00:12:17.691Z,26.77
2018-01-13T00:14:44.054Z,27.10
2018-01-13T00:17:11.155Z,27.75
2018-01-13T00:19:37.476Z,28.92
2018-01-13T00:22:03.831Z,28.15
2018-01-13T00:24:30.243Z,26.20
2018-01-13T00:26:56.605Z,31.00
2018-01-13T00:29:22.927Z,26.62
2018-01-13T00:31:49.290Z,30.35
2018-01-13T00:34:15.638Z,28.12
2018-01-13T00:36:42.714Z,24.67
2018-01-13T00:39:10.055Z,27.45
2018-01-13T00:41:36.382Z,29.42
2018-01-13T00:44:02.711Z,28.65
2018-01-13T00:46:29.070Z,26.98
2018-01-13T00:48:55.456Z,28.67
2018-01-13T00:51:22.533Z,30.80
2018-01-13T00:53:48.874Z,29.95
2018-01-13T00:56:15.221Z,34.72
2018-01-13T00:58:41.642Z,33.33
2018-01-13T01:01:08.042Z,35.22
2018-01-13T01:03:35.122Z,32.60
2018-01-13T01:06:01.475Z,32.85
2018-01-13T01:08:27.802Z,32.88
2018-01-13T01:10:54.138Z,31.42
2018-01-13T01:13:20.485Z,32.00
2018-01-13T01:15:46.826Z,32.55
2018-01-13T01:18:13.905Z,33.58
2018-01-13T01:20:40.246Z,27.60
2018-01-13T01:23:06.774Z,31.12
2018-01-13T01:25:33.718Z,33.45
2018-01-13T01:28:00.063Z,33.38
2018-01-13T01:30:26.437Z,34.35
2018-01-13T01:32:53.514Z,32.78
2018-01-13T01:35:20.583Z,31.92
2018-01-13T01:37:46.938Z,38.45
2018-01-13T01:40:13.262Z,32.22
2018-01-13T01:42:39.607Z,31.08
2018-01-13T01:45:05.954Z,30.60
2018-01-13T01:47:33.046Z,33.22
2018-01-13T01:49:59.387Z,30.67
2018-01-13T01:52:25.710Z,35.92
2018-01-13T01:54:52.065Z,32.85
2018-01-13T01:57:18.396Z,28.27
2018-01-13T01:59:44.727Z,26.90
2018-01-13T02:02:11.102Z,30.85
2018-01-13T02:04:38.206Z,35.05
2018-01-13T02:07:04.550Z,31.83
2018-01-13T02:09:30.870Z,25.65
2018-01-13T02:11:57.255Z,30.23
2018-01-13T02:14:23.614Z,36.38
2018-01-13T02:16:49.955Z,29.63
2018-01-13T02:19:16.315Z,39.83
2018-01-13T02:21:42.651Z,32.40
2018-01-13T02:24:08.993Z,25.75
2018-01-13T02:26:35.358Z,30.33
2018-01-13T02:29:01.688Z,30.37
2018-01-13T02:31:28.018Z,29.27
2018-01-13T02:33:54.366Z,26.92
2018-01-13T02:36:20.710Z,23.73
2018-01-13T02:38:47.099Z,28.60
2018-01-13T02:41:14.154Z,23.17
2018-01-13T02:43:41.234Z,26.92
2018-01-13T02:46:07.579Z,24.87
2018-01-13T02:48:33.971Z,27.20
2018-01-13T02:51:00.326Z,25.20
2018-01-13T02:53:26.650Z,26.23
2018-01-13T02:55:52.971Z,26.30
2018-01-13T02:58:19.338Z,22.62
2018-01-13T03:00:45.650Z,26.70
2018-01-13T03:03:12.041Z,24.50
2018-01-13T03:05:39.098Z,27.42
2018-01-13T03:08:06.178Z,25.45
2018-01-13T03:10:32.524Z,26.45
2018-01-13T03:12:58.994Z,25.05
2018-01-13T03:15:26.106Z,23.55
2018-01-13T03:17:52.466Z,31.02
2018-01-13T03:20:18.862Z,27.30
2018-01-13T03:22:46.260Z,33.85
2018-01-13T03:25:12.613Z,29.58
2018-01-13T03:27:39.736Z,31.77
2018-01-13T03:30:06.225Z,30.60
2018-01-13T03:32:32.590Z,33.00
2018-01-13T03:34:58.974Z,34.13
2018-01-13T03:37:25.339Z,34.67
2018-01-13T03:39:51.705Z,31.40
2018-01-13T03:42:18.806Z,31.50
2018-01-13T03:44:45.170Z,26.95
2018-01-13T03:47:11.578Z,29.00
2018-01-13T03:49:37.939Z,29.85
2018-01-13T03:52:04.294Z,30.70
2018-01-13T03:54:31.406Z,30.48
2018-01-13T03:56:57.770Z,26.02
2018-01-13T03:59:24.883Z,25.48
2018-01-13T04:01:51.249Z,27.48
2018-01-13T04:04:19.383Z,28.33
2018-01-13T04:06:45.754Z,24.52
2018-01-13T04:09:12.867Z,27.35
2018-01-13T04:11:39.242Z,27.52
2018-01-13T04:14:06.354Z,22.65
2018-01-13T04:16:32.954Z,23.58
2018-01-13T04:18:59.335Z,28.17
2018-01-13T04:21:25.699Z,26.25
2018-01-13T04:23:52.058Z,26.37
2018-01-13T04:26:18.609Z,27.55
2018-01-13T04:28:44.974Z,25.33
2018-01-13T04:31:12.138Z,30.88
2018-01-13T04:33:39.242Z,29.35
2018-01-13T04:36:05.606Z,36.58
2018-01-13T04:38:33.594Z,35.90
2018-01-13T04:41:00.696Z,33.60
2018-01-13T04:43:27.080Z,36.45
2018-01-13T04:45:53.482Z,28.83
2018-01-13T04:48:19.884Z,30.25
2018-01-13T04:50:46.247Z,29.45
2018-01-13T04:53:12.607Z,31.80
2018-01-13T04:55:39.014Z,27.48
2018-01-13T04:58:06.724Z,24.17
2018-01-13T05:00:33.099Z,28.87
2018-01-13T05:02:59.475Z,30.83
2018-01-13T05:05:25.835Z,27.65
2018-01-13T05:07:53.717Z,27.00
2018-01-13T05:10:20.106Z,29.48
2018-01-13T05:12:46.475Z,29.75
2018-01-13T05:15:13.866Z,30.67
2018-01-13T05:17:40.972Z,27.80
2018-01-13T05:20:07.385Z,28.42
2018-01-13T05:22:33.754Z,31.90
2018-01-13T05:25:01.627Z,33.33
2018-01-13T05:27:28.762Z,32.80
2018-01-13T05:29:55.142Z,28.20
2018-01-13T05:32:22.238Z,30.15
2018-01-13T05:34:48.621Z,29.33
2018-01-13T05:37:16.771Z,27.15
2018-01-13T05:39:43.881Z,25.52
2018-01-13T05:42:10.270Z,29.50
2018-01-13T05:44:37.370Z,32.45
2018-01-13T05:47:03.734Z,31.70
2018-01-13T05:49:30.138Z,36.65
2018-01-13T05:51:56.518Z,35.28
2018-01-13T05:54:23.630Z,34.50
2018-01-13T05:56:50.014Z,34.22
2018-01-13T05:59:16.394Z,30.10
2018-01-13T06:01:42.778Z,29.45
2018-01-13T06:04:09.147Z,38.65
2018-01-13T06:06:35.506Z,33.20
2018-01-13T06:09:02.678Z,33.45
2018-01-13T06:11:29.059Z,31.70
2018-01-13T06:13:55.423Z,34.30
2018-01-13T06:16:22.552Z,32.25
2018-01-13T06:18:48.941Z,35.53
2018-01-13T06:21:15.326Z,30.42
2018-01-13T06:23:41.695Z,31.35
2018-01-13T06:26:08.063Z,26.45
2018-01-13T06:28:34.457Z,32.45
2018-01-13T06:31:00.899Z,34.97
2018-01-13T06:33:27.270Z,36.95
2018-01-13T06:35:53.651Z,27.65
2018-01-13T06:38:20.058Z,30.95
2018-01-13T06:40:46.447Z,35.75
2018-01-13T06:43:12.818Z,36.58
2018-01-13T06:45:39.191Z,35.28
2018-01-13T06:48:05.563Z,28.20
2018-01-13T06:50:31.930Z,31.12
2018-01-13T06:52:59.047Z,35.95
2018-01-13T06:55:25.405Z,34.70
2018-01-13T06:57:51.826Z,30.52
2018-01-13T07:00:18.213Z,36.13
2018-01-13T07:02:44.591Z,38.20
2018-01-13T07:05:10.954Z,31.60
2018-01-13T07:07:37.319Z,35.22
2018-01-13T07:10:03.710Z,36.17
2018-01-13T07:12:30.826Z,32.45
2018-01-13T07:14:57.186Z,34.72
2018-01-13T07:17:24.369Z,31.80
2018-01-13T07:19:50.747Z,34.28
2018-01-13T07:22:17.146Z,32.05
2018-01-13T07:24:43.527Z,30.40
2018-01-13T07:27:10.658Z,36.15
2018-01-13T07:29:37.034Z,34.38
2018-01-13T07:32:03.423Z,42.22
2018-01-13T07:34:29.778Z,36.55
2018-01-13T07:36:56.924Z,31.70
2018-01-13T07:39:24.030Z,35.72
2018-01-13T07:41:50.417Z,45.42
2018-01-13T07:44:16.791Z,33.95
2018-01-13T07:46:43.162Z,42.20
2018-01-13T07:49:10.300Z,39.05
2018-01-13T07:51:36.684Z,37.20
2018-01-13T07:54:03.128Z,36.25
2018-01-13T07:56:29.518Z,33.90
2018-01-13T07:58:56.666Z,32.53
2018-01-13T08:01:23.790Z,29.17
2018-01-13T08:03:50.159Z,35.08
2018-01-13T08:06:16.566Z,32.28
2018-01-13T08:08:43.773Z,29.70
2018-01-13T08:11:10.171Z,35.85
2018-01-13T08:13:37.293Z,34.70
2018-01-13T08:16:03.678Z,31.65
2018-01-13T08:18:31.955Z,37.25
2018-01-13T08:20:58.314Z,37.10
2018-01-13T08:23:24.699Z,32.83
2018-01-13T08:25:51.810Z,35.08
2018-01-13T08:28:18.191Z,38.92
2018-01-13T08:30:44.568Z,31.87
2018-01-13T08:33:10.954Z,35.28
2018-01-13T08:35:37.402Z,32.45
2018-01-13T08:38:03.785Z,34.08
2018-01-13T08:40:30.165Z,36.42
2018-01-13T08:42:56.689Z,33.85
2018-01-13T08:45:23.912Z,23.50
2018-01-13T08:47:51.058Z,27.42
2018-01-13T08:50:18.166Z,28.90
2018-01-13T08:52:44.534Z,28.55
2018-01-13T08:55:10.896Z,30.42
2018-01-13T08:57:37.303Z,26.67
2018-01-13T09:00:04.487Z,23.40
2018-01-13T09:05:00.667Z,27.83
2018-01-13T09:07:27.042Z,27.20
2018-01-13T09:09:54.783Z,31.05
2018-01-13T09:12:21.183Z,31.50
2018-01-13T09:14:47.558Z,26.02
2018-01-13T09:17:15.070Z,32.72
2018-01-13T09:19:41.426Z,26.02
2018-01-13T09:22:07.795Z,29.85
2018-01-13T09:24:35.654Z,30.02
2018-01-13T09:27:03.788Z,26.60
2018-01-13T09:29:30.154Z,28.83
2018-01-13T09:31:57.266Z,33.17
2018-01-13T09:34:23.634Z,31.20
2018-01-13T09:36:50.746Z,29.33
2018-01-13T09:39:17.132Z,29.73
2018-01-13T09:41:44.294Z,28.95
2018-01-13T09:44:10.654Z,23.00
2018-01-13T09:46:37.240Z,24.17
2018-01-13T09:49:04.399Z,22.35
2018-01-13T09:51:31.591Z,28.20
2018-01-13T09:53:57.998Z,20.88
2018-01-13T09:56:24.377Z,27.17
2018-01-13T09:58:50.758Z,25.85
2018-01-13T10:01:17.154Z,22.13
2018-01-13T10:03:43.541Z,20.73
2018-01-13T10:06:09.902Z,21.17
2018-01-13T10:08:36.295Z,26.12
2018-01-13T10:11:02.659Z,26.33
2018-01-13T10:13:29.030Z,24.65
2018-01-13T10:15:56.174Z,22.83
2018-01-13T10:18:23.314Z,34.97
2018-01-13T10:20:49.699Z,20.42
2018-01-13T10:23:16.071Z,24.25
2018-01-13T10:25:43.467Z,20.12
2018-01-13T10:28:09.843Z,24.98
2018-01-13T10:30:36.218Z,22.80
2018-01-13T10:33:02.602Z,19.20
2018-01-13T10:35:28.961Z,20.60
2018-01-13T10:37:56.692Z,22.35
2018-01-13T10:40:23.850Z,19.62
2018-01-13T10:42:50.236Z,23.98
2018-01-13T10:45:16.667Z,18.27
2018-01-13T10:47:43.782Z,22.25
2018-01-13T10:50:10.146Z,20.10
2018-01-13T10:52:36.515Z,21.23
2018-01-13T10:55:02.919Z,20.80
2018-01-13T10:57:29.294Z,17.67
2018-01-13T10:59:55.673Z,20.20
2018-01-13T11:02:22.774Z,22.70
2018-01-13T11:04:49.170Z,26.30
2018-01-13T11:07:15.545Z,27.17
2018-01-13T11:09:42.150Z,23.33
2018-01-13T11:12:08.526Z,29.35
2018-01-13T11:14:34.918Z,26.30
2018-01-13T11:17:01.287Z,25.83
2018-01-13T11:19:28.463Z,26.25
2018-01-13T11:21:55.571Z,26.25
2018-01-13T11:24:21.958Z,30.27
2018-01-13T11:26:48.326Z,29.75
2018-01-13T11:29:14.711Z,24.17
2018-01-13T11:31:41.830Z,25.42
2018-01-13T11:34:08.290Z,24.35
2018-01-13T11:36:34.655Z,26.10
2018-01-13T11:39:02.078Z,24.00
2018-01-13T11:41:29.190Z,27.13
2018-01-13T11:43:55.599Z,23.50
2018-01-13T11:46:22.742Z,24.50
2018-01-13T11:48:49.110Z,20.23
2018-01-13T11:51:15.502Z,23.65
2018-01-13T11:53:42.602Z,20.73
2018-01-13T11:56:08.999Z,22.60
2018-01-13T11:58:35.381Z,29.05
2018-01-13T12:01:01.755Z,27.10
2018-01-13T12:03:28.204Z,27.05
2018-01-13T12:05:54.566Z,25.35
2018-01-13T12:08:20.946Z,29.63
2018-01-13T12:10:48.050Z,25.42
2018-01-13T12:13:14.410Z,26.37
2018-01-13T12:15:41.530Z,23.48
2018-01-13T12:18:07.890Z,25.00
2018-01-13T12:20:34.992Z,26.65
2018-01-13T12:23:01.387Z,23.62
2018-01-13T12:25:28.510Z,19.87
2018-01-13T12:27:54.894Z,25.52
2018-01-13T12:30:21.254Z,25.20
2018-01-13T12:32:47.614Z,21.60
2018-01-13T12:35:14.013Z,23.80
2018-01-13T12:37:40.375Z,25.33
2018-01-13T12:40:07.514Z,20.85
2018-01-13T12:42:33.901Z,26.08
2018-01-13T12:45:01.295Z,24.17
2018-01-13T12:47:28.690Z,23.45
2018-01-13T12:49:55.800Z,28.00
2018-01-13T12:52:22.187Z,22.87
2018-01-13T12:54:49.295Z,24.42
2018-01-13T12:57:15.674Z,26.77
2018-01-13T12:59:42.059Z,25.83
2018-01-13T13:02:09.209Z,25.23
2018-01-13T13:04:37.079Z,22.37
2018-01-13T13:07:03.503Z,26.67
2018-01-13T13:09:34.036Z,27.15
2018-01-13T13:12:00.402Z,27.27
2018-01-13T13:14:27.521Z,22.05
2018-01-13T13:16:53.884Z,25.15
2018-01-13T13:19:20.999Z,26.58
2018-01-13T13:21:47.370Z,23.85
2018-01-13T13:24:15.498Z,23.08
2018-01-13T13:26:41.866Z,26.42
2018-01-13T13:29:08.977Z,26.95
2018-01-13T13:31:35.354Z,32.67
2018-01-13T13:34:02.506Z,42.40
2018-01-13T13:36:29.602Z,29.52
2018-01-13T13:38:55.966Z,34.88
2018-01-13T13:41:22.341Z,25.92
2018-01-13T13:43:48.739Z,25.60
2018-01-13T13:46:15.869Z,28.95
2018-01-13T13:48:42.250Z,26.17
2018-01-13T13:51:08.634Z,24.83
2018-01-13T13:53:35.099Z,29.85
2018-01-13T13:56:02.224Z,25.62
2018-01-13T13:58:28.594Z,27.77
2018-01-13T14:00:54.966Z,25.17
2018-01-13T14:03:21.338Z,22.62
2018-01-13T14:05:48.490Z,23.02
2018-01-13T14:08:14.941Z,28.60
2018-01-13T14:10:41.316Z,26.30
2018-01-13T14:13:07.695Z,27.50
2018-01-13T14:15:34.795Z,27.23
2018-01-13T14:18:01.162Z,26.58
2018-01-13T14:20:28.298Z,22.85
2018-01-13T14:22:54.672Z,22.92
2018-01-13T14:25:21.038Z,24.42
2018-01-13T14:27:47.464Z,23.45
2018-01-13T14:30:13.851Z,28.27
2018-01-13T14:32:40.974Z,27.45
2018-01-13T14:35:07.373Z,25.55
2018-01-13T14:37:33.739Z,21.75
2018-01-13T14:40:00.124Z,24.05
2018-01-13T14:42:26.486Z,25.67
2018-01-13T14:44:52.860Z,26.25
2018-01-13T14:47:19.811Z,26.15
2018-01-13T14:49:46.174Z,27.20
2018-01-13T14:52:12.595Z,28.25
2018-01-13T14:54:38.956Z,27.30
2018-01-13T14:57:05.331Z,23.75
2018-01-13T14:59:32.435Z,27.98
2018-01-13T15:01:58.798Z,25.42
2018-01-13T15:04:25.934Z,26.85
2018-01-13T15:06:52.338Z,25.77
2018-01-13T15:09:19.828Z,24.95
2018-01-13T15:11:46.959Z,30.12
2018-01-13T15:14:14.326Z,30.55
2018-01-13T15:16:40.717Z,23.15
2018-01-13T15:19:07.298Z,26.33
2018-01-13T15:21:33.671Z,27.62
2018-01-13T15:24:00.037Z,31.62
2018-01-13T15:26:26.431Z,26.48
2018-01-13T15:28:52.838Z,31.15
2018-01-13T15:31:19.963Z,31.23
2018-01-13T15:33:46.325Z,29.08
2018-01-13T15:36:13.438Z,27.52
2018-01-13T15:38:39.802Z,26.98
2018-01-13T15:41:06.179Z,27.85
2018-01-13T15:43:32.562Z,24.63
2018-01-13T15:45:59.699Z,28.80
2018-01-13T15:48:26.095Z,25.83
2018-01-13T15:50:52.483Z,30.35
2018-01-13T15:53:18.838Z,25.80
2018-01-13T15:55:45.199Z,31.65
2018-01-13T15:58:11.723Z,30.00
2018-01-13T16:00:38.082Z,29.33
2018-01-13T16:03:04.458Z,26.83
2018-01-13T16:05:31.934Z,27.25
2018-01-13T16:07:58.286Z,27.50
2018-01-13T16:10:24.657Z,25.73
2018-01-13T16:12:51.011Z,32.72
2018-01-13T16:15:18.123Z,27.83
2018-01-13T16:17:45.506Z,35.20
2018-01-13T16:20:12.635Z,27.80
2018-01-13T16:22:39.057Z,40.63
2018-01-13T16:25:05.443Z,37.30
2018-01-13T16:27:31.858Z,29.87
2018-01-13T16:29:58.987Z,29.63
2018-01-13T16:32:25.351Z,31.52
2018-01-13T16:34:53.425Z,27.02
2018-01-13T16:37:19.818Z,31.02
2018-01-13T16:39:46.215Z,27.95
2018-01-13T16:42:12.585Z,31.50
2018-01-13T16:44:38.979Z,31.60
2018-01-13T16:47:05.338Z,30.20
2018-01-13T16:49:31.794Z,27.62
2018-01-13T16:51:58.159Z,26.75
2018-01-13T16:54:24.550Z,27.33
2018-01-13T16:56:50.914Z,25.20
2018-01-13T16:59:18.022Z,28.48
2018-01-13T17:01:44.386Z,29.92
2018-01-13T17:04:12.514Z,32.08
2018-01-13T17:06:38.923Z,30.00
2018-01-13T17:09:05.274Z,33.83
2018-01-13T17:11:31.638Z,31.77
2018-01-13T17:13:58.011Z,28.45
2018-01-13T17:16:24.370Z,26.60
2018-01-13T17:18:50.740Z,25.73
2018-01-13T17:21:17.882Z,22.80
2018-01-13T17:23:44.259Z,27.55
2018-01-13T17:26:10.619Z,25.10
2018-01-13T17:28:36.994Z,27.52
2018-01-13T17:31:04.093Z,32.30
2018-01-13T17:33:31.465Z,29.08
2018-01-13T17:35:57.850Z,25.23
2018-01-13T17:38:24.215Z,28.98
2018-01-13T17:40:50.578Z,25.23
2018-01-13T17:43:16.971Z,30.00
2018-01-13T17:45:43.354Z,26.83
2018-01-13T17:48:10.482Z,26.85
2018-01-13T17:50:38.330Z,29.83
2018-01-13T17:53:04.703Z,23.60
2018-01-13T17:55:31.827Z,30.48
2018-01-13T17:57:58.179Z,31.00
2018-01-13T18:00:25.286Z,27.30
2018-01-13T18:02:51.647Z,28.95
2018-01-13T18:05:18.006Z,30.25
2018-01-13T18:07:45.286Z,28.42
2018-01-13T18:10:11.671Z,35.85
2018-01-13T18:12:38.791Z,33.03
2018-01-13T18:15:05.222Z,35.90
2018-01-13T18:17:31.590Z,35.88
2018-01-13T18:19:58.710Z,29.87
2018-01-13T18:22:25.279Z,33.50
2018-01-13T18:24:52.410Z,32.35
2018-01-13T18:27:18.808Z,30.98
2018-01-13T18:29:45.451Z,33.03
2018-01-13T18:32:11.900Z,36.53
2018-01-13T18:34:38.301Z,32.28
2018-01-13T18:37:04.666Z,29.63
2018-01-13T18:39:31.047Z,35.00
2018-01-13T18:41:59.158Z,40.55
2018-01-13T18:44:25.522Z,36.35
2018-01-13T18:46:52.643Z,33.95
2018-01-13T18:49:19.048Z,33.35
2018-01-13T18:51:45.398Z,37.22
2018-01-13T18:54:11.718Z,34.58
2018-01-13T18:56:38.068Z,26.65
2018-01-13T18:59:04.388Z,29.87
2018-01-13T19:01:30.778Z,37.13
2018-01-13T19:03:57.915Z,34.70
2018-01-13T19:06:24.259Z,36.17
2018-01-13T19:08:51.414Z,32.40
2018-01-13T19:11:18.487Z,32.05
2018-01-13T19:13:44.856Z,35.28
2018-01-13T19:16:11.205Z,39.83
2018-01-13T19:18:37.543Z,38.45
2018-01-13T19:21:03.899Z,38.25
2018-01-13T19:23:30.995Z,37.20
2018-01-13T19:25:57.335Z,31.80
2018-01-13T19:28:23.698Z,30.42
2018-01-13T19:30:50.771Z,39.83
2018-01-13T19:33:17.123Z,35.05
2018-01-13T19:35:43.486Z,40.28
2018-01-13T19:38:10.814Z,36.03
2018-01-13T19:40:37.162Z,38.80
2018-01-13T19:43:03.519Z,34.42
2018-01-13T19:45:29.866Z,30.02
2018-01-13T19:47:57.030Z,35.75
2018-01-13T19:50:23.380Z,31.17
2018-01-13T19:52:50.103Z,35.10
2018-01-13T19:55:16.476Z,31.35
2018-01-13T19:57:42.858Z,32.22
2018-01-13T20:00:09.947Z,35.85
2018-01-13T20:02:36.274Z,37.45
2018-01-13T20:05:02.642Z,37.35
2018-01-13T20:07:28.994Z,34.53
2018-01-13T20:09:56.091Z,41.35
2018-01-13T20:12:22.434Z,34.33
2018-01-13T20:14:48.819Z,30.50
2018-01-13T20:17:15.959Z,25.95
2018-01-13T20:19:42.302Z,28.02
2018-01-13T20:22:09.382Z,30.58
2018-01-13T20:24:35.715Z,29.37
2018-01-13T20:27:02.052Z,33.65
2018-01-13T20:29:28.403Z,28.65
2018-01-13T20:31:54.730Z,27.23
2018-01-13T20:34:21.114Z,32.60
2018-01-13T20:36:47.451Z,24.45
2018-01-13T20:39:13.806Z,26.40
2018-01-13T20:41:40.134Z,32.10
2018-01-13T20:44:06.513Z,27.42
2018-01-13T20:46:32.915Z,31.23
2018-01-13T20:48:59.259Z,31.55
2018-01-13T20:51:25.591Z,26.33
2018-01-13T20:53:51.926Z,28.45
2018-01-13T20:56:19.055Z,30.77
2018-01-13T20:58:45.420Z,22.40
2018-01-13T21:01:12.614Z,28.05
2018-01-13T21:03:38.951Z,26.45
2018-01-13T21:06:05.312Z,23.05
2018-01-13T21:08:31.728Z,23.27
2018-01-13T21:10:58.091Z,22.10
2018-01-13T21:13:25.242Z,26.98
2018-01-13T21:15:52.331Z,26.58
2018-01-13T21:18:18.684Z,26.52
2018-01-13T21:20:45.060Z,23.30
2018-01-13T21:23:12.158Z,26.30
2018-01-13T21:25:38.499Z,25.05
2018-01-13T21:28:04.846Z,24.92
2018-01-13T21:30:31.179Z,26.75
2018-01-13T21:32:58.302Z,26.65
2018-01-13T21:35:24.626Z,22.48
2018-01-13T21:37:50.963Z,22.95
2018-01-13T21:40:17.286Z,26.33
2018-01-13T21:42:43.650Z,26.23
2018-01-13T21:45:10.783Z,22.33
2018-01-13T21:47:37.185Z,25.45
2018-01-13T21:50:03.538Z,28.38
2018-01-13T21:52:29.881Z,26.45
2018-01-13T21:54:56.215Z,28.33
2018-01-13T21:57:22.554Z,27.73
2018-01-13T21:59:48.898Z,32.67
2018-01-13T22:02:15.283Z,29.95
2018-01-13T22:04:41.625Z,25.23
2018-01-13T22:07:08.010Z,24.15
2018-01-13T22:09:35.123Z,26.02
2018-01-13T22:12:01.474Z,29.98
2018-01-13T22:14:27.832Z,22.77
2018-01-13T22:16:54.939Z,24.37
2018-01-13T22:19:21.320Z,27.83
2018-01-13T22:21:47.669Z,28.92
2018-01-13T22:24:14.037Z,25.65
2018-01-13T22:26:40.389Z,27.85
2018-01-13T22:29:06.755Z,28.50
2018-01-13T22:31:33.109Z,28.77
2018-01-13T22:33:59.434Z,24.98
2018-01-13T22:36:25.782Z,27.13
2018-01-13T22:38:52.298Z,22.48
2018-01-13T22:41:18.642Z,26.12
2018-01-13T22:43:44.963Z,25.35
2018-01-13T22:46:11.325Z,24.83
2018-01-13T22:48:37.650Z,25.75
2018-01-13T22:51:04.056Z,26.12
2018-01-13T22:53:31.118Z,25.15
2018-01-13T22:55:57.442Z,27.08
2018-01-13T22:58:23.775Z,21.45
2018-01-13T23:00:55.195Z,33.80
2018-01-13T23:03:21.550Z,27.98
2018-01-13T23:05:47.898Z,27.60
2018-01-13T23:08:14.223Z,27.55
2018-01-13T23:10:40.577Z,26.85
2018-01-13T23:13:06.997Z,25.30
2018-01-13T23:15:33.329Z,23.42
2018-01-13T23:17:59.646Z,24.40
2018-01-13T23:20:25.979Z,29.17
2018-01-13T23:22:52.497Z,22.83
2018-01-13T23:25:19.481Z,25.67
2018-01-13T23:27:45.846Z,26.02
2018-01-13T23:30:12.921Z,27.15
2018-01-13T23:32:39.274Z,21.12
2018-01-13T23:35:05.606Z,30.45
2018-01-13T23:37:31.998Z,24.65
2018-01-13T23:39:58.334Z,23.75
2018-01-13T23:42:24.684Z,25.35
2018-01-13T23:44:51.019Z,24.20
2018-01-13T23:47:17.398Z,23.15
2018-01-13T23:49:44.485Z,26.95
2018-01-13T23:52:10.888Z,26.67
2018-01-13T23:54:37.950Z,27.87
2018-01-13T23:57:04.348Z,21.98
2018-01-13T23:59:30.689Z,21.60
